Accueil
METAR-TAF:

METAR-TAF

Aéroports :

Aéroport de Paksé

Paksé, Laos

latitude: 15-08-02N, longitude: 105-46-55E, altitude: 107 m

Observation

Le bulletin a été fait il y a 27 minutes, à 00:00 UTC
Vent 2 kt de nord-est
Température 13°C
Humidité 88%
Pression 1015 hPa
Visibilité 10 km ou plus
Quelques nuages à une hauteur de 5000 ft
Nuages épars à une hauteur de 20000 ft

METAR: VLPS 190000Z 04002KT 9999 FEW050 SCT200 13/11 Q1015 NOSIG

Heure: 07:27 (00:27 UTC)

Prévision

Le bulletin a été fait il y a 1 heure et 27 minutes, à 23:00 UTC
Prévision valable du 19 à 00 UTC au 19 à 24 UTC
Vent 8 kt de nord
Visibilité 10 km ou plus
Quelques nuages à une hauteur de 2000 ft
Nuages épars à une hauteur de 5000 ft
Nuages épars à une hauteur de 20000 ft

TAF: VLPS 182300Z 1900/1924 36008KT 9999 FEW020 SCT050 SCT200

Observations et prévisions météorologiques de plus de 4000 aéroports (messages METAR et TAF).

Les stations disponibles sont représentées par des disques jaunes et rouges sur la carte.

Passer la souris dessus pour voir le nom de la station.

Cliquer dessus pour voir les observations et prévisions météorologiques.

Pour changer de carte: cliquez sur les boutons verts avec une croix noire pour zoomer, sur le bouton vert avec un tiret pour effectuer un zoom arrière, ou sur les flèches vertes pour les cartes adjacentes.


METAR-TAF: